Portada
METAR-TAF:

METAR-TAF

Aeroports :

Midway, Estats Units d'Amèrica

latitud: 28-13N, longitud: 177-22W, altitud: 4 m

Observació

L'informe es va fer fa 1 hora i 10 minuts, a les 02:56 UTC
Vent 12 kt del Est
Temperatura 23°C
Humitat 73%
Pressió 1026 hPa
Visibilitat: 14.5 km
Cel clar

METAR: PMDY 200256Z AUTO 09012KT 9SM CLR 23/18 A3029 RMK AO2 SLP254 6//// T02280183 56020

Hora: 18:06 (04:06 UTC)

Pronòstic

L'informe es va fer fa 4 hores i 25 minuts, a les 23:41 UTC
Pronòstic vàlid del 20 a les 00 UTC al 20 a les 24 UTC
Vent 11 kt del Est
Visibilitat: 10 km
Escasses núvols a una alçada de 2500 ft

TAF: PMDY 192341Z 2000/2024 10011KT P6SM FEW025

Observacions i pronòstics meteorològics de més de 4000 aeroports (METAR i TAF).

Les estacions disponibles són els punts grocs i vermells al mapa.

Posi el ratolí al punt desitjat per veure el nom de l'estació.

Feu clic per veure les observacions i els pronòstics meteorològics.

Per canviar el mapa: feu clic els botons verds amb una creu de color negre per apropar; al botó verd amb un guió per allunyar la imatge; o en les fletxes verdes per a mapes adjacents.


METAR-TAF: